sensor_id;sensor_type;location;lat;lon;timestamp;pressure;altitude;pressure_sealevel;temperature;humidity
75036;BME280;64247;51.540;5.854;2023-08-08T00:00:33;101292.22;;;21.95;73.93
75036;BME280;64247;51.540;5.854;2023-08-08T00:02:34;101297.75;;;21.95;73.84
75036;BME280;64247;51.540;5.854;2023-08-08T00:04:35;101296.56;;;21.96;73.83
75036;BME280;64247;51.540;5.854;2023-08-08T00:06:37;101299.75;;;21.95;73.71
75036;BME280;64247;51.540;5.854;2023-08-08T00:08:38;101298.53;;;21.96;73.77
75036;BME280;64247;51.540;5.854;2023-08-08T00:10:39;101289.47;;;21.95;73.99
75036;BME280;64247;51.540;5.854;2023-08-08T00:12:39;101290.66;;;21.94;73.80
75036;BME280;64247;51.540;5.854;2023-08-08T00:14:40;101294.22;;;21.95;73.86
75036;BME280;64247;51.540;5.854;2023-08-08T00:16:41;101298.94;;;21.94;73.90
75036;BME280;64247;51.540;5.854;2023-08-08T00:18:42;101291.47;;;21.95;73.79
75036;BME280;64247;51.540;5.854;2023-08-08T00:20:43;101287.13;;;21.94;73.72
75036;BME280;64247;51.540;5.854;2023-08-08T00:22:44;101287.91;;;21.94;73.73
75036;BME280;64247;51.540;5.854;2023-08-08T00:24:45;101289.88;;;21.94;73.81
75036;BME280;64247;51.540;5.854;2023-08-08T00:26:46;101284.75;;;21.92;73.62
75036;BME280;64247;51.540;5.854;2023-08-08T00:28:47;101287.91;;;21.94;73.77
75036;BME280;64247;51.540;5.854;2023-08-08T00:30:48;101286.31;;;21.93;73.82
75036;BME280;64247;51.540;5.854;2023-08-08T00:32:49;101275.25;;;21.93;73.99
75036;BME280;64247;51.540;5.854;2023-08-08T00:34:50;101276.44;;;21.92;73.66
75036;BME280;64247;51.540;5.854;2023-08-08T00:36:51;101280.78;;;21.93;73.79
75036;BME280;64247;51.540;5.854;2023-08-08T00:38:52;101294.59;;;21.93;73.74
75036;BME280;64247;51.540;5.854;2023-08-08T00:40:53;101289.09;;;21.93;73.77
75036;BME280;64247;51.540;5.854;2023-08-08T00:42:54;101290.28;;;21.92;73.82
75036;BME280;64247;51.540;5.854;2023-08-08T00:44:55;101281.97;;;21.92;73.96
75036;BME280;64247;51.540;5.854;2023-08-08T00:47:02;101278.44;;;21.92;73.90
75036;BME280;64247;51.540;5.854;2023-08-08T00:49:03;101280.44;;;21.91;73.98
75036;BME280;64247;51.540;5.854;2023-08-08T00:51:05;101283.97;;;21.92;73.88
75036;BME280;64247;51.540;5.854;2023-08-08T00:53:06;101277.66;;;21.91;73.92
75036;BME280;64247;51.540;5.854;2023-08-08T00:55:07;101270.16;;;21.92;73.59
75036;BME280;64247;51.540;5.854;2023-08-08T00:57:08;101274.91;;;21.91;73.78
75036;BME280;64247;51.540;5.854;2023-08-08T00:59:10;101268.16;;;21.92;73.81
75036;BME280;64247;51.540;5.854;2023-08-08T01:01:14;101265.03;;;21.90;73.85
75036;BME280;64247;51.540;5.854;2023-08-08T01:03:15;101276.09;;;21.90;74.00
75036;BME280;64247;51.540;5.854;2023-08-08T01:05:16;101278.88;;;21.90;73.77
75036;BME280;64247;51.540;5.854;2023-08-08T01:07:29;101269.75;;;21.90;73.57
75036;BME280;64247;51.540;5.854;2023-08-08T01:10:17;101269.38;;;21.91;73.77
75036;BME280;64247;51.540;5.854;2023-08-08T01:12:23;101258.72;;;21.90;73.38
75036;BME280;64247;51.540;5.854;2023-08-08T01:14:28;101262.28;;;21.90;73.78
75036;BME280;64247;51.540;5.854;2023-08-08T01:16:32;101258.72;;;21.90;73.91
75036;BME280;64247;51.540;5.854;2023-08-08T01:18:34;101258.72;;;21.90;73.73
75036;BME280;64247;51.540;5.854;2023-08-08T01:20:37;101274.53;;;21.89;73.72
75036;BME280;64247;51.540;5.854;2023-08-08T01:22:45;101259.91;;;21.89;73.85
75036;BME280;64247;51.540;5.854;2023-08-08T01:25:01;101263.47;;;21.89;73.55
75036;BME280;64247;51.540;5.854;2023-08-08T01:27:04;101266.63;;;21.88;73.66
75036;BME280;64247;51.540;5.854;2023-08-08T01:29:06;101265.44;;;21.89;73.73
75036;BME280;64247;51.540;5.854;2023-08-08T01:31:07;101257.94;;;21.89;73.55
75036;BME280;64247;51.540;5.854;2023-08-08T01:33:08;101269.00;;;21.89;73.70
75036;BME280;64247;51.540;5.854;2023-08-08T01:35:09;101263.84;;;21.88;73.74
75036;BME280;64247;51.540;5.854;2023-08-08T01:37:18;101249.25;;;21.87;73.68
75036;BME280;64247;51.540;5.854;2023-08-08T01:39:27;101258.31;;;21.88;73.60
75036;BME280;64247;51.540;5.854;2023-08-08T01:41:32;101263.09;;;21.87;73.67
75036;BME280;64247;51.540;5.854;2023-08-08T01:43:35;101258.31;;;21.88;73.57
75036;BME280;64247;51.540;5.854;2023-08-08T01:45:38;101249.25;;;21.87;73.70
75036;BME280;64247;51.540;5.854;2023-08-08T01:47:39;101249.25;;;21.87;73.94
75036;BME280;64247;51.540;5.854;2023-08-08T01:49:40;101249.25;;;21.87;73.65
75036;BME280;64247;51.540;5.854;2023-08-08T01:51:41;101235.44;;;21.87;73.66
75036;BME280;64247;51.540;5.854;2023-08-08T01:53:42;101252.03;;;21.87;73.74
75036;BME280;64247;51.540;5.854;2023-08-08T01:55:43;101253.22;;;21.86;73.61
75036;BME280;64247;51.540;5.854;2023-08-08T01:57:46;101249.69;;;21.86;73.68
75036;BME280;64247;51.540;5.854;2023-08-08T01:59:47;101252.03;;;21.87;73.57
75036;BME280;64247;51.540;5.854;2023-08-08T02:01:48;101255.22;;;21.86;73.75
75036;BME280;64247;51.540;5.854;2023-08-08T02:03:49;101251.25;;;21.87;73.71
75036;BME280;64247;51.540;5.854;2023-08-08T02:05:50;101262.31;;;21.87;73.60
75036;BME280;64247;51.540;5.854;2023-08-08T02:07:51;101268.22;;;21.85;73.53
75036;BME280;64247;51.540;5.854;2023-08-08T02:09:52;101267.03;;;21.86;73.68
75036;BME280;64247;51.540;5.854;2023-08-08T02:11:53;101269.03;;;21.86;73.63
75036;BME280;64247;51.540;5.854;2023-08-08T02:13:54;101257.97;;;21.86;73.63
75036;BME280;64247;51.540;5.854;2023-08-08T02:15:54;101250.47;;;21.86;73.59
75036;BME280;64247;51.540;5.854;2023-08-08T02:17:55;101246.91;;;21.86;73.54
75036;BME280;64247;51.540;5.854;2023-08-08T02:19:57;101247.69;;;21.86;73.72
75036;BME280;64247;51.540;5.854;2023-08-08T02:21:58;101241.78;;;21.84;73.85
75036;BME280;64247;51.540;5.854;2023-08-08T02:23:59;101251.66;;;21.85;73.63
75036;BME280;64247;51.540;5.854;2023-08-08T02:26:00;101227.19;;;21.84;73.64
75036;BME280;64247;51.540;5.854;2023-08-08T02:28:01;101227.97;;;21.84;73.70
75036;BME280;64247;51.540;5.854;2023-08-08T02:30:02;101225.19;;;21.84;73.62
75036;BME280;64247;51.540;5.854;2023-08-08T02:32:03;101218.91;;;21.84;73.39
75036;BME280;64247;51.540;5.854;2023-08-08T02:34:05;101210.63;;;21.84;73.51
75036;BME280;64247;51.540;5.854;2023-08-08T02:36:05;101213.38;;;21.84;73.70
75036;BME280;64247;51.540;5.854;2023-08-08T02:38:06;101210.63;;;21.84;73.50
75036;BME280;64247;51.540;5.854;2023-08-08T02:40:07;101218.13;;;21.83;73.61
75036;BME280;64247;51.540;5.854;2023-08-08T02:42:10;101220.91;;;21.83;73.47
75036;BME280;64247;51.540;5.854;2023-08-08T02:44:11;101218.13;;;21.83;73.48
75036;BME280;64247;51.540;5.854;2023-08-08T02:46:12;101220.09;;;21.82;73.40
75036;BME280;64247;51.540;5.854;2023-08-08T02:48:13;101222.09;;;21.82;73.65
75036;BME280;64247;51.540;5.854;2023-08-08T02:50:14;101215.75;;;21.81;73.76
75036;BME280;64247;51.540;5.854;2023-08-08T02:52:15;101216.56;;;21.82;73.65
75036;BME280;64247;51.540;5.854;2023-08-08T02:54:16;101217.75;;;21.81;73.64
75036;BME280;64247;51.540;5.854;2023-08-08T02:56:18;101222.09;;;21.82;73.58
75036;BME280;64247;51.540;5.854;2023-08-08T02:58:19;101219.31;;;21.82;73.42
75036;BME280;64247;51.540;5.854;2023-08-08T03:00:20;101215.75;;;21.81;73.50
75036;BME280;64247;51.540;5.854;2023-08-08T03:02:24;101229.56;;;21.81;73.34
75036;BME280;64247;51.540;5.854;2023-08-08T03:04:26;101212.22;;;21.81;73.41
75036;BME280;64247;51.540;5.854;2023-08-08T03:06:26;101209.47;;;21.81;73.56
75036;BME280;64247;51.540;5.854;2023-08-08T03:08:27;101201.94;;;21.81;73.48
75036;BME280;64247;51.540;5.854;2023-08-08T03:10:29;101195.66;;;21.81;73.39
75036;BME280;64247;51.540;5.854;2023-08-08T03:12:30;101197.59;;;21.80;73.25
75036;BME280;64247;51.540;5.854;2023-08-08T03:14:31;101197.59;;;21.80;73.51
75036;BME280;64247;51.540;5.854;2023-08-08T03:16:34;101198.81;;;21.79;73.63
75036;BME280;64247;51.540;5.854;2023-08-08T03:18:36;101200.38;;;21.80;73.45
75036;BME280;64247;51.540;5.854;2023-08-08T03:20:37;101199.59;;;21.80;73.46
75036;BME280;64247;51.540;5.854;2023-08-08T03:22:38;101193.28;;;21.79;73.61
75036;BME280;64247;51.540;5.854;2023-08-08T03:24:40;101192.06;;;21.80;73.42
75036;BME280;64247;51.540;5.854;2023-08-08T03:26:41;101201.59;;;21.79;73.53
75036;BME280;64247;51.540;5.854;2023-08-08T03:28:42;101204.75;;;21.78;73.66
75036;BME280;64247;51.540;5.854;2023-08-08T03:30:43;101198.03;;;21.79;73.31
75036;BME280;64247;51.540;5.854;2023-08-08T03:32:46;101204.34;;;21.79;73.45
75036;BME280;64247;51.540;5.854;2023-08-08T03:34:47;101209.88;;;21.79;73.35
75036;BME280;64247;51.540;5.854;2023-08-08T03:36:48;101208.31;;;21.78;73.24
75036;BME280;64247;51.540;5.854;2023-08-08T03:38:51;101202.78;;;21.78;73.50
75036;BME280;64247;51.540;5.854;2023-08-08T03:40:52;101213.03;;;21.78;73.45
75036;BME280;64247;51.540;5.854;2023-08-08T03:42:53;101205.53;;;21.78;73.39
75036;BME280;64247;51.540;5.854;2023-08-08T03:44:54;101202.78;;;21.78;73.42
75036;BME280;64247;51.540;5.854;2023-08-08T03:46:54;101193.69;;;21.78;73.42
75036;BME280;64247;51.540;5.854;2023-08-08T03:48:55;101196.44;;;21.78;73.39
75036;BME280;64247;51.540;5.854;2023-08-08T03:50:56;101193.69;;;21.78;73.42
75036;BME280;64247;51.540;5.854;2023-08-08T03:52:57;101193.69;;;21.78;73.36
75036;BME280;64247;51.540;5.854;2023-08-08T03:54:58;101196.44;;;21.78;73.47
75036;BME280;64247;51.540;5.854;2023-08-08T03:56:59;101203.97;;;21.77;73.70
75036;BME280;64247;51.540;5.854;2023-08-08T03:59:01;101190.94;;;21.78;73.24
75036;BME280;64247;51.540;5.854;2023-08-08T04:01:02;101194.88;;;21.77;73.59
75036;BME280;64247;51.540;5.854;2023-08-08T04:03:03;101188.16;;;21.78;73.40
75036;BME280;64247;51.540;5.854;2023-08-08T04:05:05;101191.34;;;21.76;73.43
75036;BME280;64247;51.540;5.854;2023-08-08T04:07:06;101191.34;;;21.76;73.19
75036;BME280;64247;51.540;5.854;2023-08-08T04:09:07;101189.34;;;21.77;73.30
75036;BME280;64247;51.540;5.854;2023-08-08T04:11:08;101189.34;;;21.77;73.48
75036;BME280;64247;51.540;5.854;2023-08-08T04:13:10;101183.06;;;21.76;73.46
75036;BME280;64247;51.540;5.854;2023-08-08T04:15:11;101181.06;;;21.77;73.52
75036;BME280;64247;51.540;5.854;2023-08-08T04:17:12;101181.06;;;21.77;73.58
75036;BME280;64247;51.540;5.854;2023-08-08T04:19:13;101187.00;;;21.75;73.15
75036;BME280;64247;51.540;5.854;2023-08-08T04:21:14;101177.53;;;21.76;73.49
75036;BME280;64247;51.540;5.854;2023-08-08T04:23:15;101185.81;;;21.76;73.39
75036;BME280;64247;51.540;5.854;2023-08-08T04:25:15;101181.47;;;21.75;73.41
75036;BME280;64247;51.540;5.854;2023-08-08T04:27:16;101187.81;;;21.76;73.40
75036;BME280;64247;51.540;5.854;2023-08-08T04:29:17;101185.03;;;21.76;73.22
75036;BME280;64247;51.540;5.854;2023-08-08T04:31:18;101186.59;;;21.77;73.48
75036;BME280;64247;51.540;5.854;2023-08-08T04:33:19;101183.06;;;21.76;73.34
75036;BME280;64247;51.540;5.854;2023-08-08T04:35:20;101189.34;;;21.77;73.60
75036;BME280;64247;51.540;5.854;2023-08-08T04:37:21;101180.28;;;21.76;73.43
75036;BME280;64247;51.540;5.854;2023-08-08T04:39:22;101179.88;;;21.78;73.17
75036;BME280;64247;51.540;5.854;2023-08-08T04:41:23;101187.38;;;21.77;73.11
75036;BME280;64247;51.540;5.854;2023-08-08T04:43:24;101183.06;;;21.76;73.22
75036;BME280;64247;51.540;5.854;2023-08-08T04:45:24;101181.06;;;21.77;73.22
75036;BME280;64247;51.540;5.854;2023-08-08T04:47:27;101186.59;;;21.77;73.34
75036;BME280;64247;51.540;5.854;2023-08-08T04:49:28;101183.81;;;21.77;73.38
75036;BME280;64247;51.540;5.854;2023-08-08T04:51:29;101188.59;;;21.76;73.16
75036;BME280;64247;51.540;5.854;2023-08-08T04:53:30;101183.81;;;21.77;73.29
75036;BME280;64247;51.540;5.854;2023-08-08T04:55:31;101182.63;;;21.78;73.02
75036;BME280;64247;51.540;5.854;2023-08-08T04:57:32;101184.63;;;21.77;73.53
75036;BME280;64247;51.540;5.854;2023-08-08T04:59:33;101181.88;;;21.77;73.29
75036;BME280;64247;51.540;5.854;2023-08-08T05:01:33;101177.09;;;21.78;73.18
75036;BME280;64247;51.540;5.854;2023-08-08T05:03:34;101188.97;;;21.78;73.00
75036;BME280;64247;51.540;5.854;2023-08-08T05:05:35;101182.63;;;21.78;73.09
75036;BME280;64247;51.540;5.854;2023-08-08T05:07:36;101188.16;;;21.78;73.15
75036;BME280;64247;51.540;5.854;2023-08-08T05:09:38;101181.44;;;21.79;73.06
75036;BME280;64247;51.540;5.854;2023-08-08T05:11:39;101185.41;;;21.78;73.08
75036;BME280;64247;51.540;5.854;2023-08-08T05:13:39;101175.16;;;21.78;73.04
75036;BME280;64247;51.540;5.854;2023-08-08T05:15:40;101183.44;;;21.78;72.64
75036;BME280;64247;51.540;5.854;2023-08-08T05:17:41;101182.63;;;21.78;73.01
75036;BME280;64247;51.540;5.854;2023-08-08T05:19:42;101177.09;;;21.78;73.12
75036;BME280;64247;51.540;5.854;2023-08-08T05:21:43;101176.72;;;21.79;73.21
75036;BME280;64247;51.540;5.854;2023-08-08T05:23:44;101173.97;;;21.79;73.00
75036;BME280;64247;51.540;5.854;2023-08-08T05:25:45;101171.19;;;21.79;72.80
75036;BME280;64247;51.540;5.854;2023-08-08T05:27:46;101173.97;;;21.79;72.95
75036;BME280;64247;51.540;5.854;2023-08-08T05:29:47;101181.44;;;21.79;73.10
75036;BME280;64247;51.540;5.854;2023-08-08T05:31:48;101173.97;;;21.79;72.89
75036;BME280;64247;51.540;5.854;2023-08-08T05:33:49;101177.50;;;21.80;73.05
75036;BME280;64247;51.540;5.854;2023-08-08T05:35:50;101184.59;;;21.81;72.97
75036;BME280;64247;51.540;5.854;2023-08-08T05:37:51;101181.03;;;21.80;73.02
75036;BME280;64247;51.540;5.854;2023-08-08T05:39:53;101181.81;;;21.81;73.09
75036;BME280;64247;51.540;5.854;2023-08-08T05:41:56;101179.84;;;21.81;72.77
75036;BME280;64247;51.540;5.854;2023-08-08T05:43:57;101182.59;;;21.81;73.07
75036;BME280;64247;51.540;5.854;2023-08-08T05:45:58;101185.38;;;21.81;73.01
75036;BME280;64247;51.540;5.854;2023-08-08T05:47:59;101188.13;;;21.81;72.74
75036;BME280;64247;51.540;5.854;2023-08-08T05:50:00;101188.94;;;21.82;72.96
75036;BME280;64247;51.540;5.854;2023-08-08T05:52:02;101193.66;;;21.81;72.89
75036;BME280;64247;51.540;5.854;2023-08-08T05:54:03;101186.94;;;21.82;72.94
75036;BME280;64247;51.540;5.854;2023-08-08T05:56:04;101185.75;;;21.84;72.81
75036;BME280;64247;51.540;5.854;2023-08-08T05:58:05;101182.22;;;21.83;72.77
75036;BME280;64247;51.540;5.854;2023-08-08T06:00:06;101188.50;;;21.84;73.07
75036;BME280;64247;51.540;5.854;2023-08-08T06:02:18;101192.84;;;21.85;72.73
75036;BME280;64247;51.540;5.854;2023-08-08T06:04:18;101182.56;;;21.85;72.72
75036;BME280;64247;51.540;5.854;2023-08-08T06:06:19;101189.66;;;21.86;72.67
75036;BME280;64247;51.540;5.854;2023-08-08T06:08:20;101195.97;;;21.87;72.61
75036;BME280;64247;51.540;5.854;2023-08-08T06:10:22;101195.19;;;21.86;72.73
75036;BME280;64247;51.540;5.854;2023-08-08T06:12:23;101203.47;;;21.86;72.70
75036;BME280;64247;51.540;5.854;2023-08-08T06:14:23;101193.22;;;21.87;72.87
75036;BME280;64247;51.540;5.854;2023-08-08T06:16:24;101198.75;;;21.87;72.73
75036;BME280;64247;51.540;5.854;2023-08-08T06:18:25;101189.25;;;21.88;72.54
75036;BME280;64247;51.540;5.854;2023-08-08T06:20:26;101192.81;;;21.88;72.68
75036;BME280;64247;51.540;5.854;2023-08-08T06:22:29;101201.09;;;21.88;72.53
75036;BME280;64247;51.540;5.854;2023-08-08T06:24:30;101201.88;;;21.89;72.86
75036;BME280;64247;51.540;5.854;2023-08-08T06:26:31;101196.34;;;21.89;72.67
75036;BME280;64247;51.540;5.854;2023-08-08T06:28:32;101197.13;;;21.89;72.79
75036;BME280;64247;51.540;5.854;2023-08-08T06:30:33;101197.91;;;21.90;72.67
75036;BME280;64247;51.540;5.854;2023-08-08T06:32:34;101207.00;;;21.90;72.73
75036;BME280;64247;51.540;5.854;2023-08-08T06:34:35;101204.25;;;21.90;72.81
75036;BME280;64247;51.540;5.854;2023-08-08T06:36:36;101202.25;;;21.91;72.90
75036;BME280;64247;51.540;5.854;2023-08-08T06:38:37;101210.53;;;21.91;72.78
75036;BME280;64247;51.540;5.854;2023-08-08T06:40:37;101209.34;;;21.92;72.71
75036;BME280;64247;51.540;5.854;2023-08-08T06:42:38;101214.88;;;21.92;72.69
75036;BME280;64247;51.540;5.854;2023-08-08T06:44:42;101223.94;;;21.92;72.85
75036;BME280;64247;51.540;5.854;2023-08-08T06:46:44;101213.69;;;21.93;72.71
75036;BME280;64247;51.540;5.854;2023-08-08T06:48:45;101216.44;;;21.93;72.70
75036;BME280;64247;51.540;5.854;2023-08-08T06:50:47;101215.66;;;21.92;72.63
75036;BME280;64247;51.540;5.854;2023-08-08T06:52:48;101219.22;;;21.93;72.73
75036;BME280;64247;51.540;5.854;2023-08-08T06:54:49;101226.31;;;21.94;72.66
75036;BME280;64247;51.540;5.854;2023-08-08T06:56:50;101220.78;;;21.94;72.71
75036;BME280;64247;51.540;5.854;2023-08-08T06:58:51;101220.78;;;21.94;72.58
75036;BME280;64247;51.540;5.854;2023-08-08T07:00:52;101223.13;;;21.95;72.72
75036;BME280;64247;51.540;5.854;2023-08-08T07:02:53;101216.81;;;21.95;72.72
75036;BME280;64247;51.540;5.854;2023-08-08T07:04:54;101218.78;;;21.94;72.80
75036;BME280;64247;51.540;5.854;2023-08-08T07:06:55;101219.59;;;21.95;73.14
75036;BME280;64247;51.540;5.854;2023-08-08T07:08:56;101221.94;;;21.96;72.73
75036;BME280;64247;51.540;5.854;2023-08-08T07:10:57;101215.59;;;21.96;72.64
75036;BME280;64247;51.540;5.854;2023-08-08T07:12:58;101216.41;;;21.96;72.64
75036;BME280;64247;51.540;5.854;2023-08-08T07:14:59;101212.06;;;21.95;72.93
75036;BME280;64247;51.540;5.854;2023-08-08T07:17:00;101217.19;;;21.97;72.41
75036;BME280;64247;51.540;5.854;2023-08-08T07:19:03;101212.84;;;21.96;72.74
75036;BME280;64247;51.540;5.854;2023-08-08T07:21:04;101216.41;;;21.96;72.90
75036;BME280;64247;51.540;5.854;2023-08-08T07:23:06;101211.66;;;21.97;72.71
75036;BME280;64247;51.540;5.854;2023-08-08T07:25:07;101211.66;;;21.97;72.63
75036;BME280;64247;51.540;5.854;2023-08-08T07:27:09;101214.41;;;21.97;72.56
75036;BME280;64247;51.540;5.854;2023-08-08T07:29:09;101215.22;;;21.97;72.66
75036;BME280;64247;51.540;5.854;2023-08-08T07:31:10;101217.56;;;21.99;72.76
75036;BME280;64247;51.540;5.854;2023-08-08T07:33:11;101216.38;;;22.00;72.58
75036;BME280;64247;51.540;5.854;2023-08-08T07:35:14;101221.91;;;22.00;72.73
75036;BME280;64247;51.540;5.854;2023-08-08T07:37:15;101217.16;;;22.01;72.63
75036;BME280;64247;51.540;5.854;2023-08-08T07:39:16;101212.41;;;22.01;72.65
75036;BME280;64247;51.540;5.854;2023-08-08T07:41:17;101219.53;;;22.02;72.42
75036;BME280;64247;51.540;5.854;2023-08-08T07:43:18;101214.00;;;22.02;72.63
75036;BME280;64247;51.540;5.854;2023-08-08T07:45:21;101218.72;;;22.02;72.56
75036;BME280;64247;51.540;5.854;2023-08-08T07:47:22;101208.47;;;22.02;72.58
75036;BME280;64247;51.540;5.854;2023-08-08T07:49:23;101207.25;;;22.03;72.60
75036;BME280;64247;51.540;5.854;2023-08-08T07:51:23;101214.75;;;22.03;72.63
75036;BME280;64247;51.540;5.854;2023-08-08T07:53:24;101201.72;;;22.03;72.49
75036;BME280;64247;51.540;5.854;2023-08-08T07:55:25;101206.06;;;22.04;72.38
75036;BME280;64247;51.540;5.854;2023-08-08T07:57:27;101196.56;;;22.05;72.50
75036;BME280;64247;51.540;5.854;2023-08-08T07:59:28;101208.41;;;22.06;72.43
75036;BME280;64247;51.540;5.854;2023-08-08T08:01:29;101209.19;;;22.06;72.40
75036;BME280;64247;51.540;5.854;2023-08-08T08:03:30;101207.63;;;22.05;72.40
75036;BME280;64247;51.540;5.854;2023-08-08T08:05:31;101207.22;;;22.07;72.40
75036;BME280;64247;51.540;5.854;2023-08-08T08:07:33;101211.53;;;22.08;72.40
75036;BME280;64247;51.540;5.854;2023-08-08T08:09:35;101208.00;;;22.07;72.45
75036;BME280;64247;51.540;5.854;2023-08-08T08:11:36;101204.03;;;22.08;72.46
75036;BME280;64247;51.540;5.854;2023-08-08T08:13:36;101207.19;;;22.10;72.44
75036;BME280;64247;51.540;5.854;2023-08-08T08:15:38;101200.09;;;22.09;72.37
75036;BME280;64247;51.540;5.854;2023-08-08T08:17:39;101197.31;;;22.09;72.54
75036;BME280;64247;51.540;5.854;2023-08-08T08:19:40;101207.59;;;22.09;72.46
75036;BME280;64247;51.540;5.854;2023-08-08T08:21:41;101209.56;;;22.08;72.22
75036;BME280;64247;51.540;5.854;2023-08-08T08:23:41;101200.47;;;22.08;72.38
75036;BME280;64247;51.540;5.854;2023-08-08T08:25:42;101202.06;;;22.09;72.52
75036;BME280;64247;51.540;5.854;2023-08-08T08:27:43;101197.31;;;22.09;72.31
75036;BME280;64247;51.540;5.854;2023-08-08T08:29:44;101205.19;;;22.11;72.30
75036;BME280;64247;51.540;5.854;2023-08-08T08:31:45;101194.13;;;22.11;72.22
75036;BME280;64247;51.540;5.854;2023-08-08T08:33:46;101192.16;;;22.11;72.54
75036;BME280;64247;51.540;5.854;2023-08-08T08:35:47;101192.94;;;22.12;72.23
75036;BME280;64247;51.540;5.854;2023-08-08T08:37:48;101199.25;;;22.12;72.17
75036;BME280;64247;51.540;5.854;2023-08-08T08:39:49;101201.19;;;22.16;72.16
75036;BME280;64247;51.540;5.854;2023-08-08T08:41:57;101199.63;;;22.14;72.23
75036;BME280;64247;51.540;5.854;2023-08-08T08:44:03;101202.75;;;22.17;72.14
75036;BME280;64247;51.540;5.854;2023-08-08T08:46:05;101195.66;;;22.16;72.07
75036;BME280;64247;51.540;5.854;2023-08-08T08:48:10;101199.19;;;22.16;71.93
75036;BME280;64247;51.540;5.854;2023-08-08T08:50:13;101198.00;;;22.17;72.01
75036;BME280;64247;51.540;5.854;2023-08-08T08:52:15;101202.75;;;22.17;71.99
75036;BME280;64247;51.540;5.854;2023-08-08T08:54:17;101190.13;;;22.16;71.82
75036;BME280;64247;51.540;5.854;2023-08-08T08:56:20;101198.06;;;22.13;72.19
75036;BME280;64247;51.540;5.854;2023-08-08T08:58:21;101197.66;;;22.11;72.21
75036;BME280;64247;51.540;5.854;2023-08-08T09:00:23;101207.19;;;22.10;72.35
75036;BME280;64247;51.540;5.854;2023-08-08T09:02:26;101198.50;;;22.08;72.46
75036;BME280;64247;51.540;5.854;2023-08-08T09:04:28;101199.28;;;22.09;72.24
75036;BME280;64247;51.540;5.854;2023-08-08T09:06:30;101203.25;;;22.08;72.16
75036;BME280;64247;51.540;5.854;2023-08-08T09:08:32;101210.75;;;22.07;72.26
75036;BME280;64247;51.540;5.854;2023-08-08T09:10:33;101205.22;;;22.07;72.31
75036;BME280;64247;51.540;5.854;2023-08-08T09:12:35;101206.00;;;22.08;72.28
75036;BME280;64247;51.540;5.854;2023-08-08T09:14:41;101210.34;;;22.09;72.11
75036;BME280;64247;51.540;5.854;2023-08-08T09:16:43;101196.13;;;22.10;72.22
75036;BME280;64247;51.540;5.854;2023-08-08T09:18:44;101199.66;;;22.11;72.04
75036;BME280;64247;51.540;5.854;2023-08-08T09:20:48;101200.44;;;22.11;72.05
75036;BME280;64247;51.540;5.854;2023-08-08T09:22:52;101193.31;;;22.14;72.01
75036;BME280;64247;51.540;5.854;2023-08-08T09:24:53;101198.44;;;22.16;71.91
75036;BME280;64247;51.540;5.854;2023-08-08T09:26:54;101192.91;;;22.16;71.90
75036;BME280;64247;51.540;5.854;2023-08-08T09:28:57;101183.41;;;22.17;71.85
75036;BME280;64247;51.540;5.854;2023-08-08T09:30:58;101191.31;;;22.14;72.02
75036;BME280;64247;51.540;5.854;2023-08-08T09:33:02;101196.09;;;22.14;71.60
75036;BME280;64247;51.540;5.854;2023-08-08T09:35:04;101203.97;;;22.16;71.73
75036;BME280;64247;51.540;5.854;2023-08-08T09:37:08;101204.72;;;22.16;71.62
75036;BME280;64247;51.540;5.854;2023-08-08T09:39:11;101199.19;;;22.16;71.64
75036;BME280;64247;51.540;5.854;2023-08-08T09:41:12;101201.16;;;22.19;71.57
75036;BME280;64247;51.540;5.854;2023-08-08T09:43:13;101194.81;;;22.19;71.57
75036;BME280;64247;51.540;5.854;2023-08-08T09:45:14;101196.44;;;22.16;71.61
75036;BME280;64247;51.540;5.854;2023-08-08T09:47:14;101184.22;;;22.13;71.57
75036;BME280;64247;51.540;5.854;2023-08-08T09:49:16;101190.59;;;22.10;71.69
75036;BME280;64247;51.540;5.854;2023-08-08T09:51:18;101205.63;;;22.09;71.82
75036;BME280;64247;51.540;5.854;2023-08-08T09:53:21;101199.66;;;22.11;71.69
75036;BME280;64247;51.540;5.854;2023-08-08T09:55:23;101208.34;;;22.13;71.65
75036;BME280;64247;51.540;5.854;2023-08-08T09:57:24;101220.97;;;22.14;71.57
75036;BME280;64247;51.540;5.854;2023-08-08T09:59:26;101204.72;;;22.16;71.54
75036;BME280;64247;51.540;5.854;2023-08-08T10:01:28;101207.88;;;22.18;71.53
75036;BME280;64247;51.540;5.854;2023-08-08T10:03:29;101211.03;;;22.20;71.14
75036;BME280;64247;51.540;5.854;2023-08-08T10:05:30;101216.13;;;22.22;71.04
75036;BME280;64247;51.540;5.854;2023-08-08T10:07:31;101216.91;;;22.22;71.26
75036;BME280;64247;51.540;5.854;2023-08-08T10:09:33;101213.38;;;22.22;71.29
75036;BME280;64247;51.540;5.854;2023-08-08T10:11:35;101211.75;;;22.24;71.22
75036;BME280;64247;51.540;5.854;2023-08-08T10:13:37;101222.81;;;22.24;71.25
75036;BME280;64247;51.540;5.854;2023-08-08T10:15:39;101221.63;;;22.25;71.01
75036;BME280;64247;51.540;5.854;2023-08-08T10:17:41;101214.91;;;22.26;71.15
75036;BME280;64247;51.540;5.854;2023-08-08T10:19:53;101214.47;;;22.28;71.12
75036;BME280;64247;51.540;5.854;2023-08-08T10:22:00;101218.44;;;22.27;71.05
75036;BME280;64247;51.540;5.854;2023-08-08T10:24:06;101209.75;;;22.28;70.93
75036;BME280;64247;51.540;5.854;2023-08-08T10:26:18;101212.09;;;22.30;70.83
75036;BME280;64247;51.540;5.854;2023-08-08T10:28:21;101211.66;;;22.32;70.81
75036;BME280;64247;51.540;5.854;2023-08-08T10:30:22;101218.78;;;22.33;70.77
75036;BME280;64247;51.540;5.854;2023-08-08T10:32:24;101220.75;;;22.32;70.71
75036;BME280;64247;51.540;5.854;2023-08-08T10:34:43;101217.56;;;22.34;70.70
75036;BME280;64247;51.540;5.854;2023-08-08T10:36:49;101209.28;;;22.34;70.83